createdAt,value
2018-09-01T00:00:22.249Z,85.00
2018-09-01T00:02:50.333Z,86.10
2018-09-01T00:05:18.397Z,86.80
2018-09-01T00:07:47.280Z,88.10
2018-09-01T00:10:15.345Z,87.60
2018-09-01T00:12:43.402Z,87.40
2018-09-01T00:15:11.458Z,88.10
2018-09-01T00:17:39.516Z,88.70
2018-09-01T00:20:07.593Z,89.00
2018-09-01T00:22:35.674Z,88.40
2018-09-01T00:25:03.726Z,89.40
2018-09-01T00:27:31.786Z,89.40
2018-09-01T00:29:59.833Z,90.00
2018-09-01T00:32:27.905Z,90.00
2018-09-01T00:34:55.960Z,88.80
2018-09-01T00:38:27.266Z,89.70
2018-09-01T00:40:55.320Z,89.70
2018-09-01T00:43:23.372Z,90.20
2018-09-01T00:45:51.421Z,90.20
2018-09-01T00:48:19.478Z,91.20
2018-09-01T00:50:47.528Z,91.60
2018-09-01T00:53:15.580Z,91.40
2018-09-01T00:55:43.661Z,91.40
2018-09-01T00:58:11.716Z,91.10
2018-09-01T01:00:39.762Z,91.70
2018-09-01T01:03:07.824Z,91.90
2018-09-01T01:05:35.879Z,91.80
2018-09-01T01:08:03.957Z,91.60
2018-09-01T01:10:32.021Z,92.20
2018-09-01T01:13:00.082Z,92.40
2018-09-01T01:15:28.135Z,92.80
2018-09-01T01:17:56.181Z,92.40
2018-09-01T01:20:24.230Z,92.50
2018-09-01T01:22:52.305Z,92.70
2018-09-01T01:25:20.380Z,93.00
2018-09-01T01:27:48.443Z,93.10
2018-09-01T01:30:16.498Z,93.30
2018-09-01T01:32:44.549Z,93.50
2018-09-01T01:35:12.605Z,93.60
2018-09-01T01:37:40.663Z,93.80
2018-09-01T01:40:08.734Z,93.80
2018-09-01T01:42:37.271Z,93.80
2018-09-01T01:45:05.630Z,93.90
2018-09-01T01:47:37.797Z,94.10
2018-09-01T01:50:07.273Z,94.30
2018-09-01T01:52:35.364Z,94.30
2018-09-01T01:55:03.433Z,94.30
2018-09-01T01:57:31.489Z,94.30
2018-09-01T01:59:59.556Z,94.50
2018-09-01T02:02:27.628Z,94.30
2018-09-01T02:04:55.692Z,94.70
2018-09-01T02:07:23.760Z,94.60
2018-09-01T02:09:51.815Z,94.60
2018-09-01T02:12:19.900Z,94.70
2018-09-01T02:14:54.655Z,94.60
2018-09-01T02:17:22.709Z,94.60
2018-09-01T02:19:50.782Z,94.60
2018-09-01T02:22:18.860Z,94.30
2018-09-01T02:24:46.949Z,94.10
2018-09-01T02:27:15.002Z,94.20
2018-09-01T02:29:43.139Z,94.30
2018-09-01T02:32:11.205Z,94.10
2018-09-01T02:34:39.254Z,94.30
2018-09-01T02:37:07.318Z,94.30
2018-09-01T02:39:35.373Z,94.30
2018-09-01T02:42:03.427Z,94.40
2018-09-01T02:44:31.504Z,94.70
2018-09-01T02:46:59.556Z,94.90
2018-09-01T02:49:27.673Z,94.70
2018-09-01T02:51:55.742Z,94.90
2018-09-01T02:54:23.940Z,95.20
2018-09-01T02:56:51.989Z,95.50
2018-09-01T02:59:20.040Z,96.00
2018-09-01T03:01:48.156Z,96.40
2018-09-01T03:04:16.241Z,96.40
2018-09-01T03:06:51.481Z,96.30
2018-09-01T03:09:20.025Z,96.20
2018-09-01T03:11:48.316Z,96.60
2018-09-01T03:14:16.446Z,97.00
2018-09-01T03:16:44.516Z,97.50
2018-09-01T03:19:12.558Z,98.50
2018-09-01T03:21:40.656Z,98.70
2018-09-01T03:24:08.709Z,98.70
2018-09-01T03:26:36.772Z,98.60
2018-09-01T03:29:04.939Z,98.30
2018-09-01T03:31:33.018Z,98.30
2018-09-01T03:34:01.083Z,98.30
2018-09-01T03:36:29.145Z,98.10
2018-09-01T03:38:57.197Z,98.10
2018-09-01T03:41:25.257Z,98.30
2018-09-01T03:43:53.384Z,98.50
2018-09-01T03:46:21.476Z,98.60
2018-09-01T03:48:49.555Z,98.50
2018-09-01T03:51:17.716Z,98.70
2018-09-01T03:53:45.756Z,98.90
2018-09-01T03:56:13.820Z,99.10
2018-09-01T03:58:41.874Z,99.50
2018-09-01T04:01:09.932Z,99.10
2018-09-01T04:03:37.998Z,99.60
2018-09-01T04:06:10.993Z,99.90
2018-09-01T04:08:39.039Z,99.90
2018-09-01T04:11:07.099Z,99.90
2018-09-01T04:13:35.155Z,99.90
2018-09-01T04:16:03.230Z,99.90
2018-09-01T04:18:31.303Z,99.90
2018-09-01T04:20:59.371Z,99.90
2018-09-01T04:23:27.443Z,99.90
2018-09-01T04:25:55.661Z,99.90
2018-09-01T04:28:23.825Z,99.90
2018-09-01T04:30:51.995Z,99.90
2018-09-01T04:33:20.054Z,99.70
2018-09-01T04:35:48.121Z,99.90
2018-09-01T04:38:16.185Z,99.90
2018-09-01T04:40:44.772Z,99.90
2018-09-01T04:43:12.826Z,99.90
2018-09-01T04:45:41.460Z,99.90
2018-09-01T04:48:09.640Z,99.90
2018-09-01T04:50:37.805Z,99.90
2018-09-01T04:53:05.900Z,99.90
2018-09-01T04:55:33.977Z,99.90
2018-09-01T04:58:02.020Z,99.90
2018-09-01T05:00:30.086Z,99.90
2018-09-01T05:02:58.131Z,99.90
2018-09-01T05:05:26.179Z,99.90
2018-09-01T05:07:54.227Z,99.90
2018-09-01T05:10:22.284Z,99.90
2018-09-01T05:12:50.602Z,99.90
2018-09-01T05:15:18.674Z,99.90
2018-09-01T05:17:46.856Z,99.90
2018-09-01T05:20:14.940Z,99.90
2018-09-01T05:22:43.011Z,99.90
2018-09-01T05:25:11.085Z,99.90
2018-09-01T05:27:39.146Z,99.90
2018-09-01T05:30:08.308Z,99.90
2018-09-01T05:32:36.377Z,99.90
2018-09-01T05:35:04.632Z,99.90
2018-09-01T05:37:32.710Z,99.90
2018-09-01T05:40:00.769Z,99.90
2018-09-01T05:42:28.828Z,99.90
2018-09-01T05:44:56.894Z,99.90
2018-09-01T05:47:24.957Z,99.90
2018-09-01T05:49:53.021Z,99.90
2018-09-01T05:52:21.068Z,99.90
2018-09-01T05:54:49.136Z,99.90
2018-09-01T05:57:17.207Z,99.90
2018-09-01T05:59:45.256Z,99.90
2018-09-01T06:02:13.324Z,99.90
2018-09-01T06:04:41.381Z,99.90
2018-09-01T06:07:09.452Z,99.80
2018-09-01T06:09:37.571Z,99.90
2018-09-01T06:12:05.626Z,99.90
2018-09-01T06:14:33.668Z,99.90
2018-09-01T06:17:01.723Z,99.90
2018-09-01T06:19:30.068Z,99.90
2018-09-01T06:21:58.143Z,99.90
2018-09-01T06:24:26.190Z,99.80
2018-09-01T06:26:54.469Z,99.20
2018-09-01T06:29:22.528Z,99.10
2018-09-01T06:31:53.301Z,98.80
2018-09-01T06:34:21.552Z,98.50
2018-09-01T06:36:49.557Z,98.30
2018-09-01T06:39:17.633Z,97.30
2018-09-01T06:41:45.705Z,96.00
2018-09-01T06:44:13.772Z,94.90
2018-09-01T06:46:41.864Z,93.70
2018-09-01T06:49:09.912Z,92.40
2018-09-01T06:51:38.055Z,90.20
2018-09-01T06:54:06.150Z,84.70
2018-09-01T06:56:34.234Z,79.00
2018-09-01T06:59:02.300Z,73.90
2018-09-01T07:01:30.365Z,68.20
2018-09-01T07:03:58.404Z,64.60
2018-09-01T07:06:26.464Z,60.80
2018-09-01T07:08:54.577Z,58.20
2018-09-01T07:11:22.593Z,56.00
2018-09-01T07:13:50.648Z,54.40
2018-09-01T07:16:18.765Z,53.10
2018-09-01T07:18:46.848Z,51.50
2018-09-01T07:21:14.932Z,49.20
2018-09-01T07:23:42.993Z,48.60
2018-09-01T07:26:11.059Z,46.40
2018-09-01T07:28:39.160Z,45.70
2018-09-01T07:31:07.574Z,45.50
2018-09-01T07:33:35.420Z,43.50
2018-09-01T07:36:03.552Z,42.70
2018-09-01T07:38:31.648Z,42.20
2018-09-01T07:40:59.704Z,40.80
2018-09-01T07:43:27.762Z,40.50
2018-09-01T07:45:55.821Z,40.10
2018-09-01T07:48:23.894Z,39.20
2018-09-01T07:50:51.943Z,38.40
2018-09-01T07:53:20.008Z,37.80
2018-09-01T07:55:48.090Z,37.40
2018-09-01T07:58:16.151Z,37.10
2018-09-01T08:00:44.209Z,36.50
2018-09-01T08:03:12.272Z,35.60
2018-09-01T08:05:40.335Z,34.70
2018-09-01T08:08:08.410Z,34.40
2018-09-01T08:10:36.477Z,34.20
2018-09-01T08:13:04.733Z,33.10
2018-09-01T08:15:32.780Z,33.60
2018-09-01T08:18:00.859Z,32.80
2018-09-01T08:20:28.922Z,32.40
2018-09-01T08:22:56.993Z,31.80
2018-09-01T08:25:25.050Z,31.20
2018-09-01T08:27:53.145Z,31.00
2018-09-01T08:30:21.361Z,30.20
2018-09-01T08:32:49.761Z,30.20
2018-09-01T08:35:17.816Z,30.30
2018-09-01T08:37:45.885Z,30.30
2018-09-01T08:40:13.950Z,29.80
2018-09-01T08:42:41.996Z,29.90
2018-09-01T08:45:10.101Z,29.30
2018-09-01T08:47:38.120Z,29.60
2018-09-01T08:50:06.372Z,29.00
2018-09-01T08:52:34.428Z,28.70
2018-09-01T08:55:02.496Z,28.30
2018-09-01T08:57:30.933Z,28.30
2018-09-01T08:59:58.997Z,28.10
2018-09-01T09:02:27.058Z,28.20
2018-09-01T09:04:55.276Z,27.90
2018-09-01T09:07:23.349Z,27.00
2018-09-01T09:09:51.418Z,26.90
2018-09-01T09:12:19.509Z,27.00
2018-09-01T09:14:47.573Z,27.10
2018-09-01T09:17:15.657Z,26.80
2018-09-01T09:19:43.710Z,26.40
2018-09-01T09:22:11.976Z,26.30
2018-09-01T09:24:40.033Z,26.60
2018-09-01T09:27:08.345Z,26.50
2018-09-01T09:29:36.418Z,25.60
2018-09-01T09:32:04.485Z,25.70
2018-09-01T09:34:32.565Z,25.80
2018-09-01T09:37:00.609Z,26.10
2018-09-01T09:39:28.676Z,25.40
2018-09-01T09:41:58.040Z,25.90
2018-09-01T09:44:26.045Z,25.40
2018-09-01T09:46:54.132Z,25.00
2018-09-01T09:49:22.209Z,24.50
2018-09-01T09:51:50.283Z,23.90
2018-09-01T09:54:18.325Z,24.60
2018-09-01T09:56:46.441Z,24.70
2018-09-01T09:59:14.504Z,25.00
2018-09-01T10:01:42.682Z,24.90
2018-09-01T10:04:11.492Z,24.70
2018-09-01T10:06:39.760Z,24.60
2018-09-01T10:09:11.809Z,24.80
2018-09-01T10:11:40.532Z,24.50
2018-09-01T10:14:08.596Z,25.00
2018-09-01T10:16:36.701Z,23.90
2018-09-01T10:19:05.687Z,24.20
2018-09-01T10:21:33.736Z,24.10
2018-09-01T10:24:01.801Z,24.30
2018-09-01T10:26:29.861Z,24.20
2018-09-01T10:28:57.912Z,24.00
2018-09-01T10:31:25.972Z,24.50
2018-09-01T10:33:54.558Z,24.70
2018-09-01T10:36:22.597Z,23.80
2018-09-01T10:38:50.664Z,24.20
2018-09-01T10:41:18.704Z,24.20
2018-09-01T10:43:46.776Z,23.70
2018-09-01T10:46:14.829Z,23.80
2018-09-01T10:48:43.562Z,24.40
2018-09-01T10:51:11.626Z,24.50
2018-09-01T10:53:39.745Z,24.70
2018-09-01T10:56:07.805Z,24.20
2018-09-01T10:58:35.892Z,23.90
2018-09-01T11:01:03.944Z,23.80
2018-09-01T11:03:32.021Z,23.70
2018-09-01T11:06:00.090Z,24.00
2018-09-01T11:08:28.157Z,25.30
2018-09-01T11:10:56.230Z,25.40
2018-09-01T11:13:24.276Z,25.90
2018-09-01T11:15:52.340Z,26.30
2018-09-01T11:18:20.397Z,27.00
2018-09-01T11:20:48.499Z,27.00
2018-09-01T11:23:16.508Z,27.10
2018-09-01T11:25:44.594Z,27.00
2018-09-01T11:28:12.793Z,27.80
2018-09-01T11:30:41.116Z,27.80
2018-09-01T11:33:09.195Z,27.50
2018-09-01T11:35:37.238Z,27.60
2018-09-01T11:38:05.454Z,26.80
2018-09-01T11:40:33.540Z,27.50
2018-09-01T11:43:01.677Z,29.80
2018-09-01T11:45:29.834Z,29.70
2018-09-01T11:47:57.897Z,30.80
2018-09-01T11:50:26.041Z,28.30
2018-09-01T11:52:54.093Z,30.50
2018-09-01T11:55:22.152Z,30.90
2018-09-01T11:57:50.214Z,31.20
2018-09-01T12:00:18.388Z,32.10
2018-09-01T12:02:46.630Z,32.70
2018-09-01T12:05:14.716Z,32.00
2018-09-01T12:07:42.781Z,32.60
2018-09-01T12:10:10.959Z,32.70
2018-09-01T12:12:38.999Z,31.90
2018-09-01T12:15:07.140Z,30.40
2018-09-01T12:17:35.212Z,32.20
2018-09-01T12:20:03.272Z,29.10
2018-09-01T12:22:31.328Z,33.70
2018-09-01T12:24:59.411Z,34.50
2018-09-01T12:27:27.461Z,34.20
2018-09-01T12:29:55.605Z,32.40
2018-09-01T12:32:23.669Z,31.70
2018-09-01T12:34:51.781Z,32.50
2018-09-01T12:37:19.845Z,35.70
2018-09-01T12:39:47.936Z,36.50
2018-09-01T12:42:16.012Z,35.10
2018-09-01T12:44:44.072Z,34.20
2018-09-01T12:47:12.128Z,33.40
2018-09-01T12:49:40.286Z,34.30
2018-09-01T12:52:08.370Z,35.40
2018-09-01T12:54:36.427Z,34.90
2018-09-01T12:57:04.505Z,34.60
2018-09-01T12:59:32.596Z,34.10
2018-09-01T13:02:00.865Z,32.80
2018-09-01T13:04:28.944Z,34.70
2018-09-01T13:06:57.016Z,33.40
2018-09-01T13:09:25.066Z,34.90
2018-09-01T13:11:53.136Z,34.20
2018-09-01T13:14:21.192Z,34.40
2018-09-01T13:16:49.676Z,34.50
2018-09-01T13:19:17.732Z,34.00
2018-09-01T13:21:45.801Z,33.40
2018-09-01T13:24:13.856Z,33.50
2018-09-01T13:26:41.912Z,34.40
2018-09-01T13:29:10.469Z,33.40
2018-09-01T13:31:38.536Z,33.90
2018-09-01T13:34:06.613Z,34.40
2018-09-01T13:36:35.742Z,32.50
2018-09-01T13:39:04.783Z,32.70
2018-09-01T13:41:32.833Z,33.00
2018-09-01T13:44:00.896Z,32.20
2018-09-01T13:46:28.968Z,31.80
2018-09-01T13:48:57.064Z,32.00
2018-09-01T13:51:25.145Z,33.20
2018-09-01T13:53:53.204Z,31.50
2018-09-01T13:56:21.277Z,31.40
2018-09-01T13:58:49.346Z,32.00
2018-09-01T14:01:17.420Z,33.00
2018-09-01T14:03:45.494Z,31.10
2018-09-01T14:06:13.562Z,32.70
2018-09-01T14:08:41.616Z,32.20
2018-09-01T14:11:10.749Z,33.00
2018-09-01T14:13:38.840Z,34.70
2018-09-01T14:16:07.016Z,32.90
2018-09-01T14:18:35.073Z,33.60
2018-09-01T14:21:03.150Z,31.60
2018-09-01T14:23:31.208Z,34.20
2018-09-01T14:25:59.560Z,32.60
2018-09-01T14:28:29.235Z,31.90
2018-09-01T14:30:57.418Z,31.40
2018-09-01T14:33:25.513Z,33.60
2018-09-01T14:35:53.708Z,34.50
2018-09-01T14:38:21.826Z,34.20
2018-09-01T14:40:49.931Z,34.00
2018-09-01T14:43:18.184Z,34.40
2018-09-01T14:45:46.305Z,33.60
2018-09-01T14:48:14.419Z,33.70
2018-09-01T14:50:42.437Z,34.70
2018-09-01T14:53:10.496Z,33.90
2018-09-01T14:55:38.561Z,33.50
2018-09-01T14:58:06.637Z,35.10
2018-09-01T15:00:34.696Z,33.90
2018-09-01T15:03:02.767Z,34.60
2018-09-01T15:05:31.689Z,34.50
2018-09-01T15:07:59.838Z,34.30
2018-09-01T15:10:28.012Z,32.60
2018-09-01T15:12:55.985Z,32.60
2018-09-01T15:15:24.130Z,33.50
2018-09-01T15:17:52.244Z,34.80
2018-09-01T15:20:20.305Z,34.40
2018-09-01T15:22:48.364Z,36.20
2018-09-01T15:25:16.441Z,36.60
2018-09-01T15:27:44.506Z,36.90
2018-09-01T15:30:12.568Z,36.30
2018-09-01T15:32:40.811Z,35.30
2018-09-01T15:35:08.848Z,36.70
2018-09-01T15:37:36.916Z,34.50
2018-09-01T15:40:04.996Z,34.20
2018-09-01T15:42:33.093Z,34.80
2018-09-01T15:45:01.155Z,35.40
2018-09-01T15:47:29.217Z,37.10
2018-09-01T15:49:57.277Z,37.90
2018-09-01T15:52:25.361Z,36.40
2018-09-01T15:54:53.416Z,36.70
2018-09-01T15:57:21.469Z,35.90
2018-09-01T15:59:49.516Z,37.90
2018-09-01T16:02:17.581Z,38.70
2018-09-01T16:04:45.647Z,37.90
2018-09-01T16:07:13.724Z,37.50
2018-09-01T16:09:41.796Z,37.90
2018-09-01T16:12:09.840Z,38.80
2018-09-01T16:14:37.894Z,37.90
2018-09-01T16:17:06.165Z,37.00
2018-09-01T16:19:34.223Z,38.60
2018-09-01T16:22:02.286Z,37.50
2018-09-01T16:24:30.394Z,38.90
2018-09-01T16:26:58.384Z,40.00
2018-09-01T16:29:26.440Z,41.50
2018-09-01T16:31:54.501Z,40.00
2018-09-01T16:34:22.552Z,42.10
2018-09-01T16:36:50.610Z,40.00
2018-09-01T16:39:18.664Z,41.50
2018-09-01T16:41:46.744Z,41.60
2018-09-01T16:44:14.839Z,43.00
2018-09-01T16:46:42.894Z,41.10
2018-09-01T16:49:10.953Z,40.80
2018-09-01T16:51:39.013Z,42.20
2018-09-01T16:54:07.073Z,41.10
2018-09-01T16:56:35.143Z,41.50
2018-09-01T16:59:03.449Z,39.80
2018-09-01T17:01:31.728Z,42.40
2018-09-01T17:04:00.016Z,42.70
2018-09-01T17:06:28.084Z,42.00
2018-09-01T17:08:56.140Z,42.20
2018-09-01T17:11:24.195Z,43.40
2018-09-01T17:13:52.264Z,43.40
2018-09-01T17:16:20.316Z,43.80
2018-09-01T17:18:48.372Z,42.60
2018-09-01T17:21:16.409Z,43.20
2018-09-01T17:23:44.505Z,44.50
2018-09-01T17:26:12.554Z,44.70
2018-09-01T17:28:40.635Z,44.30
2018-09-01T17:31:08.693Z,44.30
2018-09-01T17:33:36.799Z,44.60
2018-09-01T17:36:04.807Z,44.80
2018-09-01T17:38:32.877Z,43.90
2018-09-01T17:41:00.922Z,45.00
2018-09-01T17:43:28.980Z,45.70
2018-09-01T17:45:57.064Z,46.20
2018-09-01T17:48:25.137Z,43.70
2018-09-01T17:50:53.215Z,46.30
2018-09-01T17:53:21.260Z,45.90
2018-09-01T17:55:49.305Z,45.60
2018-09-01T17:58:17.383Z,45.80
2018-09-01T18:00:45.572Z,43.80
2018-09-01T18:03:13.637Z,45.30
2018-09-01T18:05:41.684Z,45.00
2018-09-01T18:08:09.753Z,46.10
2018-09-01T18:10:37.824Z,46.00
2018-09-01T18:13:05.905Z,46.20
2018-09-01T18:15:34.012Z,46.30
2018-09-01T18:18:02.069Z,45.60
2018-09-01T18:20:30.129Z,46.20
2018-09-01T18:22:58.231Z,46.70
2018-09-01T18:25:26.299Z,47.60
2018-09-01T18:27:54.326Z,47.50
2018-09-01T18:30:22.388Z,47.90
2018-09-01T18:32:50.432Z,47.20
2018-09-01T18:35:18.552Z,47.60
2018-09-01T18:37:46.531Z,47.70
2018-09-01T18:40:14.785Z,48.20
2018-09-01T18:42:42.865Z,48.20
2018-09-01T18:45:10.943Z,48.10
2018-09-01T18:47:38.998Z,48.50
2018-09-01T18:50:07.367Z,49.00
2018-09-01T18:52:35.546Z,49.70
2018-09-01T18:55:03.607Z,50.30
2018-09-01T18:57:31.701Z,51.60
2018-09-01T18:59:59.776Z,52.80
2018-09-01T19:02:27.996Z,53.40
2018-09-01T19:04:56.165Z,53.60
2018-09-01T19:07:24.140Z,56.50
2018-09-01T19:09:52.248Z,57.20
2018-09-01T19:12:20.307Z,58.40
2018-09-01T19:14:48.364Z,58.80
2018-09-01T19:17:16.477Z,58.70
2018-09-01T19:19:44.541Z,57.80
2018-09-01T19:22:12.615Z,56.90
2018-09-01T19:24:40.676Z,56.50
2018-09-01T19:27:08.741Z,59.30
2018-09-01T19:29:36.909Z,58.20
2018-09-01T19:32:04.957Z,57.70
2018-09-01T19:34:33.053Z,57.90
2018-09-01T19:37:01.108Z,59.40
2018-09-01T19:39:29.167Z,59.10
2018-09-01T19:41:57.220Z,57.90
2018-09-01T19:44:25.312Z,57.40
2018-09-01T19:46:53.365Z,57.80
2018-09-01T19:49:21.432Z,58.30
2018-09-01T19:51:49.496Z,57.80
2018-09-01T19:54:17.545Z,56.70
2018-09-01T19:56:45.674Z,56.50
2018-09-01T19:59:20.415Z,56.30
2018-09-01T20:01:48.464Z,57.00
2018-09-01T20:04:16.521Z,57.60
2018-09-01T20:06:44.578Z,58.00
2018-09-01T20:09:12.634Z,58.00
2018-09-01T20:11:40.681Z,58.60
2018-09-01T20:14:08.814Z,59.20
2018-09-01T20:16:36.789Z,59.20
2018-09-01T20:19:05.220Z,60.20
2018-09-01T20:21:33.312Z,61.70
2018-09-01T20:24:01.588Z,63.00
2018-09-01T20:26:30.132Z,63.40
2018-09-01T20:28:58.309Z,63.80
2018-09-01T20:31:26.375Z,63.90
2018-09-01T20:33:54.428Z,64.20
2018-09-01T20:36:23.217Z,63.30
2018-09-01T20:38:51.276Z,63.20
2018-09-01T20:41:19.344Z,63.20
2018-09-01T20:43:47.410Z,64.00
2018-09-01T20:46:15.490Z,64.30
2018-09-01T20:48:43.547Z,64.60
2018-09-01T20:51:11.629Z,64.60
2018-09-01T20:53:39.687Z,65.50
2018-09-01T20:56:07.768Z,66.00
2018-09-01T20:58:35.845Z,66.50
2018-09-01T21:01:03.927Z,67.80
2018-09-01T21:03:32.052Z,68.70
2018-09-01T21:06:00.104Z,70.40
2018-09-01T21:08:28.152Z,72.60
2018-09-01T21:10:56.210Z,73.20
2018-09-01T21:13:24.263Z,73.10
2018-09-01T21:15:52.331Z,72.60
2018-09-01T21:18:20.384Z,71.10
2018-09-01T21:20:48.424Z,70.90
2018-09-01T21:23:16.533Z,71.50
2018-09-01T21:25:44.615Z,70.20
2018-09-01T21:28:12.656Z,70.20
2018-09-01T21:30:40.860Z,69.60
2018-09-01T21:33:08.911Z,69.30
2018-09-01T21:35:36.989Z,69.90
2018-09-01T21:38:05.054Z,70.20
2018-09-01T21:40:33.106Z,70.20
2018-09-01T21:43:01.156Z,69.70
2018-09-01T21:45:29.230Z,69.70
2018-09-01T21:47:57.285Z,70.20
2018-09-01T21:50:25.372Z,71.40
2018-09-01T21:52:53.430Z,71.30
2018-09-01T21:55:21.487Z,70.50
2018-09-01T21:57:49.648Z,71.30
2018-09-01T22:00:17.973Z,71.00
2018-09-01T22:02:46.024Z,70.80
2018-09-01T22:05:17.236Z,71.30
2018-09-01T22:07:45.513Z,71.40
2018-09-01T22:10:13.565Z,71.80
2018-09-01T22:12:41.628Z,72.90
2018-09-01T22:15:09.664Z,74.20
2018-09-01T22:17:37.720Z,75.20
2018-09-01T22:20:05.801Z,75.50
2018-09-01T22:22:34.017Z,76.00
2018-09-01T22:25:02.140Z,75.80
2018-09-01T22:27:30.196Z,76.70
2018-09-01T22:29:58.246Z,76.10
2018-09-01T22:32:26.316Z,77.00
2018-09-01T22:34:54.364Z,78.50
2018-09-01T22:37:22.412Z,79.80
2018-09-01T22:39:50.469Z,79.60
2018-09-01T22:42:18.531Z,81.10
2018-09-01T22:44:46.580Z,81.80
2018-09-01T22:47:22.027Z,82.10
2018-09-01T22:49:50.079Z,82.60
2018-09-01T22:52:18.202Z,83.20
2018-09-01T22:54:46.256Z,83.20
2018-09-01T22:57:14.329Z,83.80
2018-09-01T22:59:42.384Z,82.30
2018-09-01T23:02:10.440Z,83.50
2018-09-01T23:04:38.510Z,83.40
2018-09-01T23:07:06.575Z,84.00
2018-09-01T23:09:34.657Z,82.80
2018-09-01T23:12:02.717Z,84.80
2018-09-01T23:14:30.758Z,84.90
2018-09-01T23:16:58.812Z,84.60
2018-09-01T23:19:26.869Z,85.10
2018-09-01T23:21:54.953Z,85.30
2018-09-01T23:24:22.998Z,84.50
2018-09-01T23:26:51.112Z,83.20
2018-09-01T23:29:19.169Z,83.30
2018-09-01T23:31:47.455Z,83.60
2018-09-01T23:34:15.511Z,82.90
2018-09-01T23:36:43.641Z,84.10
2018-09-01T23:39:12.325Z,83.40
2018-09-01T23:41:40.613Z,83.90
2018-09-01T23:44:08.899Z,82.90
2018-09-01T23:46:36.968Z,83.60
2018-09-01T23:49:05.273Z,83.60
2018-09-01T23:51:33.331Z,83.70
2018-09-01T23:54:01.387Z,84.20
2018-09-01T23:56:29.533Z,84.00
2018-09-01T23:58:57.932Z,84.20
